Time;durP1;ratioP1;P1;durP2;ratioP2;P2;SDS_P1;SDS_P2;PMS_P1;PMS_P2;Temp;Humidity;BMP_temperature;BMP_pressure;BME280_temperature;BME280_humidity;BME280_pressure;Samples;Min_cycle;Max_cycle;Signal;HPM_P1;HPM_P2
2023/08/06 00:00:38;;;;;;;;;;;28.60;51.30;;;;;;5032582;28;87479;-51
2023/08/06 00:03:03;;;;;;;;;;;28.60;51.40;;;;;;5029192;28;88074;-50
2023/08/06 00:05:29;;;;;;;;;;;28.50;51.50;;;;;;5029030;28;87261;-52
2023/08/06 00:07:54;;;;;;;;;;;28.50;51.30;;;;;;5033213;28;87441;-53
2023/08/06 00:10:20;;;;;;;;;;;28.50;51.40;;;;;;5029548;28;87335;-53
2023/08/06 00:12:45;;;;;;;;;;;28.50;51.40;;;;;;5032895;28;87243;-52
2023/08/06 00:15:11;;;;;;;;;;;28.50;51.40;;;;;;5030642;28;87310;-52
2023/08/06 00:17:37;;;;;;;;;;;28.50;52.10;;;;;;5029274;28;92378;-49
2023/08/06 00:20:05;;;;;;;;;;;28.40;51.40;;;;;;5033074;28;87121;-52
2023/08/06 00:22:31;;;;;;;;;;;28.40;51.50;;;;;;5029383;28;89378;-53
2023/08/06 00:24:57;;;;;;;;;;;28.40;51.50;;;;;;5030824;28;87915;-51
2023/08/06 00:27:23;;;;;;;;;;;28.40;51.50;;;;;;5030243;28;88794;-51
2023/08/06 00:29:48;;;;;;;;;;;28.40;51.50;;;;;;5031768;28;87959;-52
2023/08/06 00:32:14;;;;;;;;;;;28.40;51.60;;;;;;5031933;27;87125;-52
2023/08/06 00:34:39;;;;;;;;;;;28.40;51.70;;;;;;5031664;28;87432;-50
2023/08/06 00:37:05;;;;;;;;;;;28.40;51.60;;;;;;5036008;28;89711;-49
2023/08/06 00:39:30;;;;;;;;;;;28.30;51.60;;;;;;5032401;28;87420;-51
2023/08/06 00:41:56;;;;;;;;;;;28.30;51.60;;;;;;5037438;28;87946;-52
2023/08/06 00:44:21;;;;;;;;;;;28.30;51.70;;;;;;5034051;28;87634;-53
2023/08/06 00:46:47;;;;;;;;;;;28.30;51.70;;;;;;5034320;28;88597;-51
2023/08/06 00:49:12;;;;;;;;;;;28.20;51.70;;;;;;5029127;28;88251;-52
2023/08/06 00:51:38;;;;;;;;;;;28.20;51.70;;;;;;5032560;28;87181;-53
2023/08/06 00:54:03;;;;;;;;;;;28.20;51.80;;;;;;5035312;28;87883;-48
2023/08/06 00:56:29;;;;;;;;;;;28.20;51.80;;;;;;5031833;28;88167;-53
2023/08/06 00:58:55;;;;;;;;;;;28.20;51.80;;;;;;5036120;28;86305;-50
2023/08/06 01:01:20;;;;;;;;;;;28.20;51.80;;;;;;5032517;28;87030;-50
2023/08/06 01:03:46;;;;;;;;;;;28.10;51.80;;;;;;5037391;28;88374;-52
2023/08/06 01:06:11;;;;;;;;;;;28.10;51.80;;;;;;5030288;28;87829;-51
2023/08/06 01:08:49;;;;;;;;;;;28.10;52.00;;;;;;5033118;28;88312;-49
2023/08/06 01:11:42;;;;;;;;;;;28.10;51.90;;;;;;5027358;28;87114;-53
2023/08/06 01:14:37;;;;;;;;;;;28.10;52.00;;;;;;5034470;28;87550;-48
2023/08/06 01:17:03;;;;;;;;;;;28.10;52.00;;;;;;5017460;28;88245;-49
2023/08/06 01:19:29;;;;;;;;;;;28.00;51.90;;;;;;5033533;28;87142;-52
2023/08/06 01:21:54;;;;;;;;;;;28.00;52.00;;;;;;5033439;28;88815;-49
2023/08/06 01:24:20;;;;;;;;;;;28.00;52.00;;;;;;5034572;28;87106;-51
2023/08/06 01:26:50;;;;;;;;;;;28.00;52.00;;;;;;5035082;28;87158;-50
2023/08/06 01:29:22;;;;;;;;;;;27.90;52.00;;;;;;5033467;28;88340;-52
2023/08/06 01:31:48;;;;;;;;;;;27.90;52.10;;;;;;5032674;28;87906;-53
2023/08/06 01:34:17;;;;;;;;;;;27.90;52.10;;;;;;5034179;28;88453;-50
2023/08/06 01:36:42;;;;;;;;;;;27.90;52.30;;;;;;5030350;28;87438;-49
2023/08/06 01:39:08;;;;;;;;;;;27.90;52.10;;;;;;5032533;28;87053;-52
2023/08/06 01:41:33;;;;;;;;;;;27.90;52.20;;;;;;5030486;28;87066;-49
2023/08/06 01:43:59;;;;;;;;;;;27.90;52.80;;;;;;5033882;27;88558;-52
2023/08/06 01:46:24;;;;;;;;;;;27.80;52.20;;;;;;5034759;28;87218;-48
2023/08/06 01:48:50;;;;;;;;;;;27.80;52.20;;;;;;5034895;28;87660;-52
2023/08/06 01:51:15;;;;;;;;;;;27.80;52.20;;;;;;5030212;28;87225;-50
2023/08/06 01:53:41;;;;;;;;;;;27.80;52.20;;;;;;5032953;28;87464;-51
2023/08/06 01:56:06;;;;;;;;;;;27.70;52.20;;;;;;5029610;28;89150;-49
2023/08/06 01:58:32;;;;;;;;;;;27.70;52.20;;;;;;5033104;28;88091;-48
2023/08/06 02:00:57;;;;;;;;;;;27.70;52.30;;;;;;5033930;28;87383;-49
2023/08/06 02:03:23;;;;;;;;;;;27.70;52.30;;;;;;5032011;28;88047;-54
2023/08/06 02:05:48;;;;;;;;;;;27.70;52.40;;;;;;5032003;28;87900;-49
2023/08/06 02:08:14;;;;;;;;;;;27.70;52.40;;;;;;5034201;28;87382;-52
2023/08/06 02:10:40;;;;;;;;;;;27.60;52.40;;;;;;5027488;28;87248;-53
2023/08/06 02:13:05;;;;;;;;;;;27.60;52.40;;;;;;5032285;28;87381;-53
2023/08/06 02:15:30;;;;;;;;;;;27.60;52.50;;;;;;5033836;28;88305;-51
2023/08/06 02:17:56;;;;;;;;;;;27.60;52.50;;;;;;5032364;28;87003;-50
2023/08/06 02:20:22;;;;;;;;;;;27.60;52.50;;;;;;5029039;28;88972;-50
2023/08/06 02:22:47;;;;;;;;;;;27.60;52.50;;;;;;5032136;28;87977;-52
2023/08/06 02:25:12;;;;;;;;;;;27.50;52.50;;;;;;5032851;28;87437;-52
2023/08/06 02:27:38;;;;;;;;;;;27.50;52.50;;;;;;5031682;28;87298;-48
2023/08/06 02:30:04;;;;;;;;;;;27.50;52.60;;;;;;5036610;28;88413;-49
2023/08/06 02:32:31;;;;;;;;;;;27.50;52.60;;;;;;5030826;28;87661;-50
2023/08/06 02:34:57;;;;;;;;;;;27.40;52.60;;;;;;5026767;28;89575;-51
2023/08/06 02:37:22;;;;;;;;;;;27.40;52.60;;;;;;5030592;28;86422;-51
2023/08/06 02:39:48;;;;;;;;;;;27.40;52.60;;;;;;5033930;28;87083;-51
2023/08/06 02:42:13;;;;;;;;;;;27.40;52.70;;;;;;5031131;28;88221;-50
2023/08/06 02:44:39;;;;;;;;;;;27.40;52.70;;;;;;5032419;28;88090;-53
2023/08/06 02:47:04;;;;;;;;;;;27.40;52.80;;;;;;5032630;28;89325;-52
2023/08/06 02:49:30;;;;;;;;;;;27.30;52.70;;;;;;5031936;28;88153;-51
2023/08/06 02:51:55;;;;;;;;;;;27.30;52.70;;;;;;5032987;28;87254;-53
2023/08/06 02:54:21;;;;;;;;;;;27.30;52.80;;;;;;5033135;28;88210;-52
2023/08/06 02:56:46;;;;;;;;;;;27.30;52.80;;;;;;5030970;28;87146;-52
2023/08/06 02:59:12;;;;;;;;;;;27.30;52.90;;;;;;5034337;28;87298;-50
2023/08/06 03:01:38;;;;;;;;;;;27.30;52.90;;;;;;5030850;28;87399;-52
2023/08/06 03:04:04;;;;;;;;;;;27.20;52.90;;;;;;5033783;28;87793;-51
2023/08/06 03:06:30;;;;;;;;;;;27.20;52.90;;;;;;5025212;28;88485;-50
2023/08/06 03:08:55;;;;;;;;;;;27.20;52.90;;;;;;5030855;28;87919;-52
2023/08/06 03:11:21;;;;;;;;;;;27.20;52.90;;;;;;5031907;28;87319;-51
2023/08/06 03:13:46;;;;;;;;;;;27.20;53.00;;;;;;5034548;28;87873;-53
2023/08/06 03:16:12;;;;;;;;;;;27.20;52.90;;;;;;5033110;28;87151;-50
2023/08/06 03:18:38;;;;;;;;;;;27.10;53.00;;;;;;5030986;28;87723;-51
2023/08/06 03:21:03;;;;;;;;;;;27.20;53.10;;;;;;5028666;28;89385;-47
2023/08/06 03:23:29;;;;;;;;;;;27.10;53.10;;;;;;5034157;28;87184;-47
2023/08/06 03:25:54;;;;;;;;;;;27.10;53.10;;;;;;5027473;28;88925;-49
2023/08/06 03:28:20;;;;;;;;;;;27.00;53.10;;;;;;5032432;28;88217;-49
2023/08/06 03:30:45;;;;;;;;;;;27.00;53.10;;;;;;5031192;28;86982;-49
2023/08/06 03:33:11;;;;;;;;;;;27.00;53.10;;;;;;5032006;28;88090;-53
2023/08/06 03:35:36;;;;;;;;;;;27.00;53.10;;;;;;5034077;28;88159;-54
2023/08/06 03:38:02;;;;;;;;;;;27.00;53.20;;;;;;5029023;28;88799;-49
2023/08/06 03:40:27;;;;;;;;;;;27.00;53.20;;;;;;5030911;28;88035;-53
2023/08/06 03:42:53;;;;;;;;;;;27.00;53.20;;;;;;5031201;28;87182;-49
2023/08/06 03:45:18;;;;;;;;;;;27.00;53.20;;;;;;5020992;28;88899;-50
2023/08/06 03:47:44;;;;;;;;;;;27.00;53.90;;;;;;5025269;28;88116;-48
2023/08/06 03:50:09;;;;;;;;;;;26.90;53.20;;;;;;5030463;28;86549;-50
2023/08/06 03:52:35;;;;;;;;;;;26.90;53.30;;;;;;5031419;28;88083;-50
2023/08/06 03:55:00;;;;;;;;;;;26.90;53.30;;;;;;5027819;28;88175;-53
2023/08/06 03:57:26;;;;;;;;;;;26.80;53.30;;;;;;5020507;28;88818;-49
2023/08/06 03:59:51;;;;;;;;;;;26.80;53.30;;;;;;5031372;28;87764;-50
2023/08/06 04:02:17;;;;;;;;;;;26.80;53.40;;;;;;5026798;28;87205;-50
2023/08/06 04:04:43;;;;;;;;;;;26.80;53.40;;;;;;5024923;28;88981;-48
2023/08/06 04:07:08;;;;;;;;;;;26.80;53.50;;;;;;5030331;28;89203;-49
2023/08/06 04:09:34;;;;;;;;;;;26.80;53.50;;;;;;5036549;28;87126;-50
2023/08/06 04:12:01;;;;;;;;;;;26.70;53.50;;;;;;5027408;28;87516;-52
2023/08/06 04:14:27;;;;;;;;;;;26.80;53.50;;;;;;5026358;28;87556;-48
2023/08/06 04:16:53;;;;;;;;;;;26.70;53.50;;;;;;5036807;28;87092;-49
2023/08/06 04:19:18;;;;;;;;;;;26.70;53.60;;;;;;5033329;28;87252;-49
2023/08/06 04:21:44;;;;;;;;;;;26.70;53.60;;;;;;5028130;28;88088;-48
2023/08/06 04:24:09;;;;;;;;;;;26.70;53.60;;;;;;5024655;28;89155;-47
2023/08/06 04:26:35;;;;;;;;;;;26.70;53.60;;;;;;5029194;28;88397;-47
2023/08/06 04:29:00;;;;;;;;;;;26.60;53.60;;;;;;5034410;28;87177;-47
2023/08/06 04:31:26;;;;;;;;;;;26.60;53.60;;;;;;5025904;28;88830;-52
2023/08/06 04:33:51;;;;;;;;;;;26.60;53.70;;;;;;5021853;28;88135;-51
2023/08/06 04:36:17;;;;;;;;;;;26.60;53.70;;;;;;5032360;28;87149;-50
2023/08/06 04:38:45;;;;;;;;;;;26.60;53.70;;;;;;5035160;28;88053;-47
2023/08/06 04:41:10;;;;;;;;;;;26.60;53.70;;;;;;5019917;28;87080;-51
2023/08/06 04:43:36;;;;;;;;;;;26.50;53.70;;;;;;5028282;28;87486;-50
2023/08/06 04:46:01;;;;;;;;;;;26.50;53.80;;;;;;5032443;28;89006;-50
2023/08/06 04:48:27;;;;;;;;;;;26.50;53.80;;;;;;5031136;28;87207;-49
2023/08/06 04:50:52;;;;;;;;;;;26.50;53.80;;;;;;5028354;28;88384;-50
2023/08/06 04:53:18;;;;;;;;;;;26.50;54.50;;;;;;5023173;28;89201;-49
2023/08/06 04:55:43;;;;;;;;;;;26.50;53.80;;;;;;5033426;28;87105;-49
2023/08/06 04:58:09;;;;;;;;;;;26.50;53.80;;;;;;5027311;28;87393;-51
2023/08/06 05:00:35;;;;;;;;;;;26.40;53.90;;;;;;5027857;28;87597;-48
2023/08/06 05:03:01;;;;;;;;;;;26.40;54.00;;;;;;5028709;28;87679;-49
2023/08/06 05:05:27;;;;;;;;;;;26.40;53.90;;;;;;5035739;28;87168;-48
2023/08/06 05:07:53;;;;;;;;;;;26.40;54.60;;;;;;5023883;28;87177;-48
2023/08/06 05:10:19;;;;;;;;;;;26.40;54.00;;;;;;5026718;28;88009;-52
2023/08/06 05:12:44;;;;;;;;;;;26.40;54.00;;;;;;5027109;28;87298;-51
2023/08/06 05:15:10;;;;;;;;;;;26.40;54.00;;;;;;5034559;28;87146;-54
2023/08/06 05:17:35;;;;;;;;;;;26.30;54.00;;;;;;5023709;28;87573;-49
2023/08/06 05:20:01;;;;;;;;;;;26.30;54.00;;;;;;5028985;28;87195;-50
2023/08/06 05:22:26;;;;;;;;;;;26.40;54.10;;;;;;5026762;28;87224;-54
2023/08/06 05:24:52;;;;;;;;;;;26.30;54.10;;;;;;5034918;28;88088;-50
2023/08/06 05:27:18;;;;;;;;;;;26.30;54.10;;;;;;5026307;28;86455;-48
2023/08/06 05:29:44;;;;;;;;;;;26.30;54.10;;;;;;5023611;28;87403;-47
2023/08/06 05:32:10;;;;;;;;;;;26.30;54.10;;;;;;5031112;28;88071;-50
2023/08/06 05:34:35;;;;;;;;;;;26.30;54.20;;;;;;5031798;28;88060;-47
2023/08/06 05:37:01;;;;;;;;;;;26.20;54.20;;;;;;5020204;28;87526;-48
2023/08/06 05:39:26;;;;;;;;;;;26.20;54.20;;;;;;5023470;28;88075;-49
2023/08/06 05:41:52;;;;;;;;;;;26.20;54.20;;;;;;5031369;28;87161;-47
2023/08/06 05:44:17;;;;;;;;;;;26.20;54.20;;;;;;5033758;28;88793;-47
2023/08/06 05:46:43;;;;;;;;;;;26.20;54.20;;;;;;5029513;28;87147;-46
2023/08/06 05:49:08;;;;;;;;;;;26.20;54.20;;;;;;5028826;28;87446;-51
2023/08/06 05:51:34;;;;;;;;;;;26.20;54.20;;;;;;5027790;28;87491;-50
2023/08/06 05:53:59;;;;;;;;;;;26.20;54.30;;;;;;5031315;28;87143;-51
2023/08/06 05:56:25;;;;;;;;;;;26.10;54.20;;;;;;5027017;28;87513;-52
2023/08/06 05:58:52;;;;;;;;;;;26.10;54.90;;;;;;5026341;28;89024;-50
2023/08/06 06:01:18;;;;;;;;;;;26.10;54.30;;;;;;5030697;28;87327;-52
2023/08/06 06:03:44;;;;;;;;;;;26.10;54.40;;;;;;5032688;28;87446;-51
2023/08/06 06:06:09;;;;;;;;;;;26.10;54.40;;;;;;5026169;28;87061;-52
2023/08/06 06:08:35;;;;;;;;;;;26.10;54.40;;;;;;5025780;28;88379;-49
2023/08/06 06:11:00;;;;;;;;;;;26.10;54.40;;;;;;5032590;28;89176;-51
2023/08/06 06:13:26;;;;;;;;;;;26.10;54.30;;;;;;5024576;28;87311;-53
2023/08/06 06:15:54;;;;;;;;;;;26.10;54.40;;;;;;5018780;28;87588;-52
2023/08/06 06:18:19;;;;;;;;;;;26.00;54.30;;;;;;5025930;28;88054;-50
2023/08/06 06:20:44;;;;;;;;;;;26.00;54.40;;;;;;5034350;28;87150;-50
2023/08/06 06:23:10;;;;;;;;;;;26.00;54.50;;;;;;5024883;28;90647;-49
2023/08/06 06:25:35;;;;;;;;;;;26.00;54.50;;;;;;5032358;28;88718;-48
2023/08/06 06:28:01;;;;;;;;;;;26.00;54.50;;;;;;5027634;28;87454;-53
2023/08/06 06:30:27;;;;;;;;;;;26.00;54.60;;;;;;5031041;28;89374;-49
2023/08/06 06:32:52;;;;;;;;;;;26.00;54.60;;;;;;5026488;28;87755;-49
2023/08/06 06:35:18;;;;;;;;;;;26.00;54.60;;;;;;5023275;28;87461;-48
2023/08/06 06:37:43;;;;;;;;;;;25.90;54.50;;;;;;5020512;28;88220;-49
2023/08/06 06:40:09;;;;;;;;;;;25.90;54.60;;;;;;5031929;28;86411;-49
2023/08/06 06:42:35;;;;;;;;;;;26.00;54.60;;;;;;5025906;28;88362;-52
2023/08/06 06:45:00;;;;;;;;;;;26.00;54.50;;;;;;5026070;28;88033;-51
2023/08/06 06:47:26;;;;;;;;;;;26.00;54.60;;;;;;5031933;28;88193;-50
2023/08/06 06:49:51;;;;;;;;;;;26.00;54.50;;;;;;5033527;28;88167;-53
2023/08/06 06:52:17;;;;;;;;;;;25.90;54.60;;;;;;5026491;28;87313;-48
2023/08/06 06:54:42;;;;;;;;;;;25.90;54.70;;;;;;5020636;28;87769;-48
2023/08/06 06:57:08;;;;;;;;;;;25.90;54.70;;;;;;5025285;28;88182;-54
2023/08/06 06:59:33;;;;;;;;;;;25.90;54.80;;;;;;5029818;28;87160;-51
2023/08/06 07:01:59;;;;;;;;;;;25.90;54.70;;;;;;5027531;28;87221;-51
2023/08/06 07:04:24;;;;;;;;;;;25.90;54.70;;;;;;5027751;28;87119;-49
2023/08/06 07:06:51;;;;;;;;;;;25.80;54.70;;;;;;5025879;28;87416;-54
2023/08/06 07:09:17;;;;;;;;;;;25.90;54.80;;;;;;5032738;28;88111;-55
2023/08/06 07:11:43;;;;;;;;;;;25.80;54.70;;;;;;5018255;28;88177;-55
2023/08/06 07:14:09;;;;;;;;;;;25.80;54.90;;;;;;5011130;28;88370;-51
2023/08/06 07:16:34;;;;;;;;;;;25.80;54.70;;;;;;5029995;28;87884;-52
2023/08/06 07:19:00;;;;;;;;;;;25.80;54.80;;;;;;5031968;28;87181;-53
2023/08/06 07:21:26;;;;;;;;;;;25.80;54.80;;;;;;5026898;28;87620;-54
2023/08/06 07:23:51;;;;;;;;;;;25.80;54.70;;;;;;5021328;28;88945;-52
2023/08/06 07:26:17;;;;;;;;;;;25.80;54.80;;;;;;5030074;28;87102;-53
2023/08/06 07:28:42;;;;;;;;;;;25.80;54.90;;;;;;5029373;28;87419;-54
2023/08/06 07:31:08;;;;;;;;;;;25.80;54.70;;;;;;5013631;28;91260;-55
2023/08/06 07:33:33;;;;;;;;;;;25.80;54.90;;;;;;5026505;28;87640;-51
2023/08/06 07:35:59;;;;;;;;;;;25.80;54.90;;;;;;5029286;28;89082;-50
2023/08/06 07:38:24;;;;;;;;;;;25.80;54.80;;;;;;5029757;28;87073;-54
2023/08/06 07:40:50;;;;;;;;;;;25.80;54.90;;;;;;5024984;28;87977;-52
2023/08/06 07:43:15;;;;;;;;;;;25.80;54.90;;;;;;5026165;28;87294;-51
2023/08/06 07:45:41;;;;;;;;;;;25.70;54.90;;;;;;5034905;28;87100;-53
2023/08/06 07:48:06;;;;;;;;;;;25.70;54.80;;;;;;5034780;28;87528;-52
2023/08/06 07:50:32;;;;;;;;;;;25.70;54.90;;;;;;5024936;28;88404;-53
2023/08/06 07:52:58;;;;;;;;;;;25.70;54.90;;;;;;5029053;28;86591;-52
2023/08/06 07:55:23;;;;;;;;;;;25.80;55.00;;;;;;5033853;28;88089;-49
2023/08/06 07:57:49;;;;;;;;;;;25.70;54.90;;;;;;5032380;28;87222;-52
2023/08/06 08:00:14;;;;;;;;;;;25.70;54.90;;;;;;5029286;28;89270;-51
2023/08/06 08:02:40;;;;;;;;;;;25.70;54.80;;;;;;5028954;28;89361;-53
2023/08/06 08:05:08;;;;;;;;;;;25.70;54.90;;;;;;5033585;28;87205;-52
2023/08/06 08:07:33;;;;;;;;;;;25.70;54.90;;;;;;5027620;28;88796;-53
2023/08/06 08:09:59;;;;;;;;;;;25.70;54.90;;;;;;5022453;28;88148;-54
2023/08/06 08:12:24;;;;;;;;;;;25.70;54.90;;;;;;5032301;28;87268;-49
2023/08/06 08:14:50;;;;;;;;;;;25.70;54.90;;;;;;5034153;28;88109;-50
2023/08/06 08:17:15;;;;;;;;;;;25.70;54.80;;;;;;5029653;28;86498;-50
2023/08/06 08:19:41;;;;;;;;;;;25.70;54.90;;;;;;5027064;28;87548;-51
2023/08/06 08:22:06;;;;;;;;;;;25.70;55.00;;;;;;5030723;28;87515;-51
2023/08/06 08:24:32;;;;;;;;;;;25.70;54.90;;;;;;5027759;28;88047;-54
2023/08/06 08:26:57;;;;;;;;;;;25.70;54.90;;;;;;5026455;28;87701;-52
2023/08/06 08:29:23;;;;;;;;;;;25.70;54.90;;;;;;5025070;28;88089;-50
2023/08/06 08:31:50;;;;;;;;;;;25.70;54.90;;;;;;5035893;28;87212;-52
2023/08/06 08:34:16;;;;;;;;;;;25.70;54.80;;;;;;5036054;28;87516;-51
2023/08/06 08:36:42;;;;;;;;;;;25.70;54.90;;;;;;5032341;28;87677;-53
2023/08/06 08:39:07;;;;;;;;;;;25.70;54.90;;;;;;5022672;28;88755;-51
2023/08/06 08:41:33;;;;;;;;;;;25.70;54.90;;;;;;5034698;28;87508;-53
2023/08/06 08:44:01;;;;;;;;;;;25.60;54.80;;;;;;5033031;28;87185;-51
2023/08/06 08:46:29;;;;;;;;;;;25.70;54.80;;;;;;5025230;28;88834;-54
2023/08/06 08:48:55;;;;;;;;;;;25.70;54.90;;;;;;5020197;28;89110;-51
2023/08/06 08:51:21;;;;;;;;;;;25.60;54.80;;;;;;5033393;28;87323;-52
2023/08/06 08:53:48;;;;;;;;;;;25.60;54.80;;;;;;5030656;28;88029;-54
2023/08/06 08:56:14;;;;;;;;;;;25.60;54.70;;;;;;5024971;28;88273;-55
2023/08/06 08:58:40;;;;;;;;;;;25.60;54.80;;;;;;5023732;28;88654;-51
2023/08/06 09:01:06;;;;;;;;;;;25.70;54.80;;;;;;5035603;28;88032;-51
2023/08/06 09:03:32;;;;;;;;;;;25.60;54.80;;;;;;5029347;28;88971;-51
2023/08/06 09:05:57;;;;;;;;;;;25.60;54.90;;;;;;5029538;28;87418;-50
2023/08/06 09:08:27;;;;;;;;;;;25.60;54.90;;;;;;5020108;28;87828;-54
2023/08/06 09:10:53;;;;;;;;;;;25.70;54.90;;;;;;5034874;28;87081;-53
2023/08/06 09:13:20;;;;;;;;;;;25.70;54.80;;;;;;5024855;28;89154;-53
2023/08/06 09:15:46;;;;;;;;;;;25.70;54.80;;;;;;5019079;28;89435;-50
2023/08/06 09:18:12;;;;;;;;;;;25.70;54.80;;;;;;5034610;28;87260;-51
2023/08/06 09:20:40;;;;;;;;;;;25.60;54.80;;;;;;5033250;28;87947;-52
2023/08/06 09:23:10;;;;;;;;;;;25.60;54.80;;;;;;5023118;28;87266;-54
2023/08/06 09:25:38;;;;;;;;;;;25.60;54.80;;;;;;5025327;28;87791;-52
2023/08/06 09:28:03;;;;;;;;;;;25.60;54.80;;;;;;5032264;28;87667;-51
2023/08/06 09:30:33;;;;;;;;;;;25.60;54.90;;;;;;5032090;28;86977;-51
2023/08/06 09:32:58;;;;;;;;;;;25.60;54.90;;;;;;5024348;28;87897;-50
2023/08/06 09:35:24;;;;;;;;;;;25.60;54.90;;;;;;5022685;28;88079;-53
2023/08/06 09:37:49;;;;;;;;;;;25.60;54.90;;;;;;5031431;28;88072;-53
2023/08/06 09:40:31;;;;;;;;;;;25.50;54.80;;;;;;5035524;28;88294;-51
2023/08/06 09:42:57;;;;;;;;;;;25.60;54.90;;;;;;5021376;28;87522;-51
2023/08/06 09:45:23;;;;;;;;;;;25.60;54.90;;;;;;5028676;28;87795;-52
2023/08/06 09:47:49;;;;;;;;;;;25.50;54.80;;;;;;5032236;28;87961;-52
2023/08/06 09:50:16;;;;;;;;;;;25.50;54.80;;;;;;5028050;28;88760;-54
2023/08/06 09:52:42;;;;;;;;;;;25.50;54.80;;;;;;5024936;28;88018;-50
2023/08/06 09:55:08;;;;;;;;;;;25.50;54.90;;;;;;5030844;28;87355;-51
2023/08/06 09:57:34;;;;;;;;;;;25.60;54.90;;;;;;5031557;28;87007;-52
2023/08/06 10:00:00;;;;;;;;;;;25.50;54.80;;;;;;5029594;28;87506;-51
2023/08/06 10:02:26;;;;;;;;;;;25.60;54.90;;;;;;5021954;28;88508;-53
2023/08/06 10:04:52;;;;;;;;;;;25.60;54.80;;;;;;5033329;27;88170;-52
2023/08/06 10:07:18;;;;;;;;;;;25.60;54.90;;;;;;5030750;28;88090;-54
2023/08/06 10:09:44;;;;;;;;;;;25.60;54.90;;;;;;5018757;28;87099;-54
2023/08/06 10:12:10;;;;;;;;;;;25.60;54.80;;;;;;5022564;28;87631;-54
2023/08/06 10:14:37;;;;;;;;;;;25.60;54.80;;;;;;5031805;28;89507;-49
2023/08/06 10:17:03;;;;;;;;;;;25.60;54.70;;;;;;5031549;28;87287;-53
2023/08/06 10:19:29;;;;;;;;;;;25.60;54.80;;;;;;5022838;28;87481;-54
2023/08/06 10:22:14;;;;;;;;;;;25.60;54.80;;;;;;5027403;28;87963;-50
2023/08/06 10:25:05;;;;;;;;;;;25.60;54.80;;;;;;5030584;28;89049;-51
2023/08/06 10:27:35;;;;;;;;;;;25.60;54.80;;;;;;5026224;28;88953;-53
2023/08/06 10:30:20;;;;;;;;;;;25.60;54.80;;;;;;5025990;28;87161;-53
2023/08/06 10:32:52;;;;;;;;;;;25.60;54.80;;;;;;5025192;28;88329;-51
2023/08/06 10:35:30;;;;;;;;;;;25.60;54.90;;;;;;5033289;28;87044;-53
2023/08/06 10:38:00;;;;;;;;;;;25.60;54.90;;;;;;5020489;28;87681;-50
2023/08/06 10:40:26;;;;;;;;;;;25.60;54.90;;;;;;5026184;28;88752;-53
2023/08/06 10:42:51;;;;;;;;;;;25.60;54.80;;;;;;5032070;28;88110;-52
2023/08/06 10:45:18;;;;;;;;;;;25.60;54.80;;;;;;5033593;28;87702;-52
2023/08/06 10:47:43;;;;;;;;;;;25.60;54.30;;;;;;5026222;28;87294;-52
2023/08/06 10:50:18;;;;;;;;;;;25.60;54.80;;;;;;5021219;28;87213;-51
2023/08/06 10:52:44;;;;;;;;;;;25.60;54.80;;;;;;5031700;28;88329;-52
2023/08/06 10:55:10;;;;;;;;;;;25.60;54.80;;;;;;5029527;28;89681;-52
2023/08/06 10:57:35;;;;;;;;;;;25.60;54.70;;;;;;5014318;28;87664;-51
2023/08/06 11:00:01;;;;;;;;;;;25.60;54.70;;;;;;5029299;28;87403;-52
2023/08/06 11:02:27;;;;;;;;;;;25.60;54.60;;;;;;5029758;28;88122;-51
2023/08/06 11:04:53;;;;;;;;;;;25.70;54.60;;;;;;5026420;28;87210;-54
2023/08/06 11:07:18;;;;;;;;;;;25.70;54.60;;;;;;5029961;28;87398;-54
2023/08/06 11:09:44;;;;;;;;;;;25.70;54.60;;;;;;5026141;28;86449;-53
2023/08/06 11:12:10;;;;;;;;;;;25.70;54.60;;;;;;5032578;28;87466;-50
2023/08/06 11:14:35;;;;;;;;;;;25.70;54.70;;;;;;5017691;28;87906;-54
2023/08/06 11:17:01;;;;;;;;;;;25.70;54.60;;;;;;5020990;28;88875;-52
2023/08/06 11:19:26;;;;;;;;;;;25.70;54.70;;;;;;5029779;28;87489;-50
2023/08/06 11:21:52;;;;;;;;;;;25.70;54.70;;;;;;5030931;28;88293;-53
2023/08/06 11:24:18;;;;;;;;;;;25.60;54.70;;;;;;5023674;28;87584;-55
2023/08/06 11:26:44;;;;;;;;;;;25.60;54.80;;;;;;5025422;28;87457;-50
2023/08/06 11:29:10;;;;;;;;;;;25.60;54.70;;;;;;5030608;28;89204;-51
2023/08/06 11:31:36;;;;;;;;;;;25.60;54.70;;;;;;5025525;28;88288;-53
2023/08/06 11:34:01;;;;;;;;;;;25.60;54.60;;;;;;5022444;28;87371;-51
2023/08/06 11:36:30;;;;;;;;;;;25.70;54.70;;;;;;5018550;28;87237;-54
2023/08/06 11:38:56;;;;;;;;;;;25.70;54.60;;;;;;5028780;28;87448;-50
2023/08/06 11:41:22;;;;;;;;;;;25.70;54.60;;;;;;5028186;28;88917;-53
2023/08/06 11:43:48;;;;;;;;;;;25.70;54.60;;;;;;5024933;28;87160;-54
2023/08/06 11:46:13;;;;;;;;;;;25.70;54.60;;;;;;5023725;28;87407;-55
2023/08/06 11:48:55;;;;;;;;;;;25.60;54.60;;;;;;5030920;28;88237;-54
2023/08/06 11:51:25;;;;;;;;;;;25.70;54.70;;;;;;5029192;28;87091;-55
2023/08/06 11:53:51;;;;;;;;;;;25.60;54.60;;;;;;5022550;28;88047;-51
2023/08/06 11:56:17;;;;;;;;;;;25.60;54.60;;;;;;5024285;28;89024;-54
2023/08/06 11:58:42;;;;;;;;;;;25.60;54.60;;;;;;5031322;28;87421;-52
2023/08/06 12:01:08;;;;;;;;;;;25.70;54.70;;;;;;5023447;28;87729;-55
2023/08/06 12:03:39;;;;;;;;;;;25.60;54.60;;;;;;5021737;28;87178;-52
2023/08/06 12:06:04;;;;;;;;;;;25.60;54.70;;;;;;5029812;28;88145;-51
2023/08/06 12:08:30;;;;;;;;;;;25.60;54.70;;;;;;5031453;28;88150;-51
2023/08/06 12:10:55;;;;;;;;;;;25.60;54.70;;;;;;5027701;28;87178;-52
2023/08/06 12:13:21;;;;;;;;;;;25.60;54.70;;;;;;5026822;28;88013;-51
2023/08/06 12:15:46;;;;;;;;;;;25.60;54.60;;;;;;5023612;28;87134;-53
2023/08/06 12:18:12;;;;;;;;;;;25.60;54.70;;;;;;5029431;28;88109;-55
2023/08/06 12:20:38;;;;;;;;;;;25.60;54.60;;;;;;5020153;28;88476;-55
2023/08/06 12:23:04;;;;;;;;;;;25.60;54.60;;;;;;5022040;28;87562;-54
2023/08/06 12:25:29;;;;;;;;;;;25.60;54.60;;;;;;5024283;28;87235;-53
2023/08/06 12:27:55;;;;;;;;;;;25.60;54.60;;;;;;5033523;28;87995;-56
2023/08/06 12:30:20;;;;;;;;;;;25.60;54.60;;;;;;5023849;28;88539;-52
2023/08/06 12:32:46;;;;;;;;;;;25.60;54.60;;;;;;5024025;28;89054;-52
2023/08/06 12:35:11;;;;;;;;;;;25.60;54.50;;;;;;5032754;28;87137;-51
2023/08/06 12:37:38;;;;;;;;;;;25.60;54.60;;;;;;5033472;28;88775;-50
2023/08/06 12:40:04;;;;;;;;;;;25.60;54.60;;;;;;5027060;28;88458;-50
2023/08/06 12:42:29;;;;;;;;;;;25.70;54.60;;;;;;5026023;28;87225;-51
2023/08/06 12:44:55;;;;;;;;;;;25.70;54.50;;;;;;5032511;28;87076;-52
2023/08/06 12:47:20;;;;;;;;;;;25.70;54.50;;;;;;5032908;28;87466;-51
2023/08/06 12:49:46;;;;;;;;;;;25.70;54.50;;;;;;5024744;28;87333;-52
2023/08/06 12:52:14;;;;;;;;;;;25.70;55.10;;;;;;5029469;28;87774;-52
2023/08/06 12:54:40;;;;;;;;;;;25.70;54.40;;;;;;5033883;28;90355;-55
2023/08/06 12:57:06;;;;;;;;;;;25.70;54.40;;;;;;5032780;28;87962;-53
2023/08/06 12:59:36;;;;;;;;;;;25.70;54.50;;;;;;5032523;28;89592;-51
2023/08/06 13:02:02;;;;;;;;;;;25.70;54.40;;;;;;5025095;28;87275;-55
2023/08/06 13:04:27;;;;;;;;;;;25.70;54.40;;;;;;5033960;28;89032;-53
2023/08/06 13:06:53;;;;;;;;;;;25.70;54.50;;;;;;5033304;28;88152;-55
2023/08/06 13:09:19;;;;;;;;;;;25.70;54.50;;;;;;5026339;28;87141;-50
2023/08/06 13:11:46;;;;;;;;;;;25.70;54.50;;;;;;5028021;28;87269;-53
2023/08/06 13:14:13;;;;;;;;;;;25.70;54.50;;;;;;5031923;28;88028;-54
2023/08/06 13:16:40;;;;;;;;;;;25.60;54.40;;;;;;5029939;28;87176;-51
2023/08/06 13:19:06;;;;;;;;;;;25.70;54.50;;;;;;5024300;28;89633;-54
2023/08/06 13:21:33;;;;;;;;;;;25.70;54.50;;;;;;5028391;28;87071;-51
2023/08/06 13:23:59;;;;;;;;;;;25.70;55.10;;;;;;5035480;27;87942;-51
2023/08/06 13:26:25;;;;;;;;;;;25.70;54.50;;;;;;5022010;28;89008;-54
2023/08/06 13:28:50;;;;;;;;;;;25.70;54.50;;;;;;5027990;28;87075;-52
2023/08/06 13:31:16;;;;;;;;;;;25.70;54.40;;;;;;5030346;28;88867;-52
2023/08/06 13:33:41;;;;;;;;;;;25.70;54.50;;;;;;5032891;28;88021;-51
2023/08/06 13:36:07;;;;;;;;;;;25.70;54.40;;;;;;5015515;28;88085;-58
2023/08/06 13:38:32;;;;;;;;;;;25.60;54.20;;;;;;5029680;28;87191;-53
2023/08/06 13:40:58;;;;;;;;;;;25.60;55.00;;;;;;5028660;28;87316;-52
2023/08/06 13:43:24;;;;;;;;;;;25.70;56.30;;;;;;5030419;28;88274;-51
2023/08/06 13:45:49;;;;;;;;;;;25.80;56.50;;;;;;5024135;28;88700;-64
2023/08/06 13:48:15;;;;;;;;;;;25.80;55.20;;;;;;5022206;28;87260;-60
2023/08/06 13:50:40;;;;;;;;;;;25.90;55.50;;;;;;5031939;28;87423;-58
2023/08/06 13:53:06;;;;;;;;;;;26.00;55.20;;;;;;5028601;28;88317;-60
2023/08/06 13:55:31;;;;;;;;;;;26.00;54.50;;;;;;5024565;28;87462;-60
2023/08/06 13:57:57;;;;;;;;;;;26.00;53.90;;;;;;5027617;28;88136;-61
2023/08/06 14:00:22;;;;;;;;;;;25.90;53.30;;;;;;5036231;28;87650;-56
2023/08/06 14:02:48;;;;;;;;;;;25.80;51.40;;;;;;5028433;28;87910;-53
2023/08/06 14:05:14;;;;;;;;;;;25.90;50.60;;;;;;5031815;28;87984;-60
2023/08/06 14:07:39;;;;;;;;;;;25.80;50.60;;;;;;5030489;28;88147;-59
2023/08/06 14:10:05;;;;;;;;;;;25.80;49.70;;;;;;5024935;28;87531;-47